Time;durP1;ratioP1;P1;durP2;ratioP2;P2;SDS_P1;SDS_P2;PMS_P1;PMS_P2;Temp;Humidity;BMP_temperature;BMP_pressure;BME280_temperature;BME280_humidity;BME280_pressure;Samples;Min_cycle;Max_cycle;Signal;HPM_P1;HPM_P2
2022/06/08 00:00:14;;;;;;;2.58;1.58;;;;;;;16.68;99.71;96059.84;4976651;28;20212;-72
2022/06/08 00:02:43;;;;;;;2.50;1.65;;;;;;;16.48;100.00;96056.53;4974567;28;20238;-72
2022/06/08 00:05:11;;;;;;;3.50;1.80;;;;;;;16.68;99.20;96059.84;4975202;28;20474;-72
2022/06/08 00:07:38;;;;;;;1.90;1.27;;;;;;;16.45;99.96;96058.81;4976472;28;20236;-72
2022/06/08 00:10:05;;;;;;;3.35;1.60;;;;;;;16.42;100.00;96054.75;4975347;28;20208;-72
2022/06/08 00:12:32;;;;;;;3.90;1.50;;;;;;;16.33;100.00;96060.53;4974487;28;20699;-72
2022/06/08 00:14:59;;;;;;;2.90;1.90;;;;;;;16.21;100.00;96055.06;4975701;28;20582;-72
2022/06/08 00:17:27;;;;;;;2.53;1.50;;;;;;;16.35;100.00;96051.31;4975716;28;20237;-72
2022/06/08 00:19:54;;;;;;;2.60;1.67;;;;;;;16.16;100.00;96057.56;4975097;28;20230;-72
2022/06/08 00:22:21;;;;;;;2.70;1.50;;;;;;;16.14;100.00;96046.34;4974318;28;21057;-72
2022/06/08 00:24:47;;;;;;;2.13;1.60;;;;;;;16.09;100.00;96046.16;4975478;28;20204;-72
2022/06/08 00:27:14;;;;;;;2.63;1.50;;;;;;;16.07;100.00;96050.88;4975372;28;20227;-72
2022/06/08 00:29:41;;;;;;;3.40;1.50;;;;;;;15.93;100.00;96046.66;4974974;28;20211;-72
2022/06/08 00:32:08;;;;;;;7.88;1.60;;;;;;;16.14;100.00;96045.50;4971564;28;20299;-72
2022/06/08 00:34:36;;;;;;;2.58;1.80;;;;;;;16.15;100.00;96047.97;4974621;28;20203;-72
2022/06/08 00:37:03;;;;;;;8.15;1.88;;;;;;;16.03;100.00;96046.22;4974783;28;20234;-72
2022/06/08 00:39:29;;;;;;;3.38;1.55;;;;;;;15.97;100.00;96045.22;4975125;28;20203;-72
2022/06/08 00:41:59;;;;;;;2.67;1.80;;;;;;;15.90;100.00;96036.47;4975194;28;20257;-72
2022/06/08 00:44:31;;;;;;;2.20;1.80;;;;;;;16.08;100.00;96033.09;4974097;28;20203;-72
2022/06/08 00:47:00;;;;;;;1.67;1.58;;;;;;;15.94;100.00;96032.34;4974770;28;20223;-72
2022/06/08 00:49:30;;;;;;;5.13;2.17;;;;;;;15.88;100.00;96041.19;4974218;28;20207;-72
2022/06/08 00:51:59;;;;;;;3.72;2.45;;;;;;;15.77;100.00;96032.25;4974867;28;20210;-72
2022/06/08 00:54:30;;;;;;;4.32;2.80;;;;;;;15.73;100.00;96033.72;4973766;28;20941;-72
2022/06/08 00:57:01;;;;;;;5.85;3.13;;;;;;;15.91;100.00;96031.97;4974682;28;20238;-72
2022/06/08 00:59:28;;;;;;;4.85;3.30;;;;;;;15.84;100.00;96039.16;4975013;28;20203;-72
2022/06/08 01:01:55;;;;;;;5.65;3.35;;;;;;;15.70;100.00;96028.84;4975384;28;20231;-72
2022/06/08 01:04:22;;;;;;;5.70;3.08;;;;;;;15.72;100.00;96026.78;4973548;28;20203;-72
2022/06/08 01:06:54;;;;;;;9.88;3.40;;;;;;;15.85;100.00;96032.84;4974911;28;20230;-72
2022/06/08 01:09:27;;;;;;;4.63;3.05;;;;;;;15.77;100.00;96030.44;4975057;28;20211;-72
2022/06/08 01:11:58;;;;;;;5.47;3.13;;;;;;;15.70;100.00;96023.53;4974485;28;20203;-72
2022/06/08 01:14:26;;;;;;;6.53;2.97;;;;;;;15.60;100.00;96023.97;4973769;28;20218;-72
2022/06/08 01:16:59;;;;;;;4.50;2.90;;;;;;;15.68;100.00;96022.91;4974391;28;20242;-72
2022/06/08 01:19:27;;;;;;;3.97;2.40;;;;;;;15.66;100.00;96027.66;4974378;28;20222;-72
2022/06/08 01:21:58;;;;;;;3.45;2.15;;;;;;;15.68;100.00;96025.56;4974207;28;20598;-72
2022/06/08 01:24:26;;;;;;;4.53;1.80;;;;;;;15.50;100.00;96023.66;4973958;28;20686;-72
2022/06/08 01:27:06;;;;;;;3.20;1.73;;;;;;;15.39;100.00;96024.31;4974113;28;20223;-73
2022/06/08 01:29:43;;;;;;;2.97;1.98;;;;;;;15.48;100.00;96025.69;4973968;28;20929;-72
2022/06/08 01:32:18;;;;;;;5.88;1.83;;;;;;;15.66;100.00;96020.47;4971362;28;20199;-72
2022/06/08 01:35:10;;;;;;;2.50;1.70;;;;;;;15.51;100.00;96027.09;4974698;28;20214;-72
2022/06/08 01:37:48;;;;;;;4.30;1.65;;;;;;;15.55;100.00;96015.81;4973952;28;21251;-72
2022/06/08 01:40:40;;;;;;;1.88;1.50;;;;;;;15.43;100.00;96017.53;4974668;28;20916;-72
2022/06/08 01:43:19;;;;;;;1.42;1.23;;;;;;;15.29;100.00;96015.97;4970516;28;21153;-72
2022/06/08 01:45:56;;;;;;;4.20;1.38;;;;;;;15.27;100.00;96012.72;4974343;28;20207;-72
2022/06/08 01:48:39;;;;;;;4.80;1.50;;;;;;;15.22;100.00;96011.72;4974118;28;20234;-72
2022/06/08 01:51:19;;;;;;;2.25;1.50;;;;;;;15.31;100.00;96013.94;4974178;28;20211;-72
2022/06/08 01:53:54;;;;;;;2.50;1.50;;;;;;;15.39;99.42;96007.56;4973714;28;20199;-72
2022/06/08 01:56:30;;;;;;;3.38;1.85;;;;;;;15.30;98.91;96001.69;4973781;28;20395;-72
2022/06/08 01:59:10;;;;;;;4.55;1.70;;;;;;;15.36;97.71;96005.31;4973854;28;20215;-72
2022/06/08 02:01:43;;;;;;;3.40;1.33;;;;;;;15.19;97.97;96004.13;4976207;28;20227;-72
2022/06/08 02:04:18;;;;;;;2.65;1.35;;;;;;;15.22;97.70;95998.44;4977192;28;20203;-72
2022/06/08 02:06:52;;;;;;;6.18;1.35;;;;;;;15.16;96.87;95993.13;4976705;28;20237;-72
2022/06/08 02:09:26;;;;;;;1.95;1.13;;;;;;;15.17;96.92;95990.25;4977781;28;20208;-71
2022/06/08 02:11:58;;;;;;;4.10;1.42;;;;;;;15.13;96.58;95993.56;4977568;28;20660;-71
2022/06/08 02:14:31;;;;;;;1.42;1.10;;;;;;;14.97;95.61;95984.22;4976429;28;20204;-72
2022/06/08 02:17:06;;;;;;;5.70;1.33;;;;;;;15.00;96.01;95978.50;4977418;28;20239;-72
2022/06/08 02:19:37;;;;;;;1.70;1.23;;;;;;;14.99;95.13;95984.00;4977503;28;20202;-72
2022/06/08 02:22:07;;;;;;;1.80;1.27;;;;;;;14.91;96.80;95979.75;4976926;28;20231;-72
2022/06/08 02:24:40;;;;;;;2.10;1.52;;;;;;;14.95;96.80;95980.94;4976818;28;20214;-72
2022/06/08 02:27:13;;;;;;;2.40;1.40;;;;;;;14.90;97.57;95978.09;4977020;28;20231;-72
2022/06/08 02:29:45;;;;;;;1.50;1.23;;;;;;;14.95;96.36;95980.94;4976435;28;20200;-71
2022/06/08 02:35:07;;;;;;;3.90;1.30;;;;;;;14.80;96.78;95975.09;4978279;28;20250;-72
2022/06/08 02:37:37;;;;;;;2.72;1.48;;;;;;;14.73;98.97;95971.66;4977132;28;20227;-72
2022/06/08 02:40:08;;;;;;;1.58;1.35;;;;;;;14.83;96.50;95977.34;4976694;28;20208;-72
2022/06/08 02:42:40;;;;;;;3.40;1.52;;;;;;;14.57;94.38;95981.88;4976152;28;20234;-72
2022/06/08 02:45:13;;;;;;;2.75;1.33;;;;;;;14.67;93.58;95977.78;4977097;28;20218;-72
2022/06/08 02:47:42;;;;;;;1.52;1.10;;;;;;;14.62;94.31;95986.59;4976892;28;20223;-72
2022/06/08 02:50:11;;;;;;;5.13;1.30;;;;;;;14.46;95.82;95977.22;4976507;28;20533;-72
2022/06/08 02:52:42;;;;;;;1.42;1.10;;;;;;;14.51;95.86;95976.59;4976194;28;20660;-72
2022/06/08 02:55:18;;;;;;;3.05;1.42;;;;;;;14.55;95.29;95978.63;4976920;28;20239;-72
2022/06/08 02:57:50;;;;;;;1.27;1.00;;;;;;;14.41;94.77;95986.81;4976211;28;20231;-72
2022/06/08 03:00:21;;;;;;;1.55;1.10;;;;;;;14.42;93.44;95978.66;4976662;28;20196;-72
2022/06/08 03:02:51;;;;;;;4.05;1.33;;;;;;;14.40;93.83;95977.25;4975711;28;20231;-72
2022/06/08 03:05:22;;;;;;;1.75;1.20;;;;;;;14.49;94.48;95986.59;4976011;28;20297;-72
2022/06/08 03:07:55;;;;;;;2.60;1.05;;;;;;;14.19;96.56;95980.09;4976747;28;20705;-72
2022/06/08 03:10:25;;;;;;;2.90;1.10;;;;;;;14.43;94.22;95971.53;4976768;28;20199;-72
2022/06/08 03:12:58;;;;;;;1.45;0.95;;;;;;;14.34;93.58;95972.75;4974865;28;20199;-72
2022/06/08 03:15:26;;;;;;;3.10;1.02;;;;;;;14.24;93.89;95965.25;4976341;28;20223;-72
2022/06/08 03:17:53;;;;;;;2.78;1.00;;;;;;;14.15;94.86;95968.28;4976362;28;20231;-72
2022/06/08 03:20:22;;;;;;;4.25;1.02;;;;;;;14.19;92.46;95969.50;4976526;28;20588;-72
2022/06/08 03:22:48;;;;;;;2.55;0.80;;;;;;;13.78;91.49;95968.88;4974900;28;20223;-71
2022/06/08 03:25:15;;;;;;;2.10;0.93;;;;;;;13.87;91.02;95967.66;4976166;28;20211;-72
2022/06/08 03:27:44;;;;;;;3.40;0.95;;;;;;;14.00;91.44;95967.63;4976413;28;20317;-72
2022/06/08 03:30:13;;;;;;;1.93;1.10;;;;;;;13.93;94.64;95968.69;4976206;28;20664;-72
2022/06/08 03:32:39;;;;;;;1.13;0.90;;;;;;;13.88;94.80;95971.94;4972174;28;20664;-71
2022/06/08 03:35:08;;;;;;;2.95;0.80;;;;;;;13.76;92.83;95968.28;4976169;28;20211;-72
2022/06/08 03:37:35;;;;;;;0.80;0.80;;;;;;;13.87;92.73;95967.66;4975974;28;20230;-71
2022/06/08 03:40:03;;;;;;;1.13;1.00;;;;;;;13.91;94.47;95976.81;4976248;28;20207;-72
2022/06/08 03:42:30;;;;;;;1.87;0.90;;;;;;;13.70;94.17;95977.00;4975669;28;20223;-72
2022/06/08 03:44:58;;;;;;;1.00;0.90;;;;;;;13.91;93.02;95971.50;4975539;28;20687;-72
2022/06/08 03:47:28;;;;;;;4.40;0.88;;;;;;;13.94;93.93;95968.47;4975508;28;20227;-72
2022/06/08 03:49:59;;;;;;;9.00;1.08;;;;;;;14.07;93.33;95966.63;4976156;28;20721;-71
2022/06/08 03:52:29;;;;;;;2.15;1.08;;;;;;;14.15;93.10;95963.00;4975422;28;20203;-71
2022/06/08 03:55:01;;;;;;;4.10;1.10;;;;;;;14.17;96.63;95960.97;4975313;28;20207;-71
2022/06/08 03:57:29;;;;;;;2.50;0.98;;;;;;;14.06;95.59;95950.94;4975483;28;20223;-71
2022/06/08 04:00:00;;;;;;;3.65;1.00;;;;;;;13.81;95.49;95957.88;4975915;28;20687;-72
2022/06/08 04:02:27;;;;;;;2.03;1.10;;;;;;;13.54;93.86;95958.88;4974667;28;20227;-72
2022/06/08 04:04:54;;;;;;;5.43;0.90;;;;;;;13.63;92.43;95955.03;4975757;28;20207;-72
2022/06/08 04:07:21;;;;;;;1.42;0.98;;;;;;;13.78;92.01;95957.47;4975677;28;20683;-72
2022/06/08 04:09:48;;;;;;;1.23;0.90;;;;;;;13.89;92.92;95962.97;4975124;28;20207;-72
2022/06/08 04:12:16;;;;;;;2.97;1.00;;;;;;;13.90;94.74;95956.66;4974640;28;20203;-72
2022/06/08 04:14:43;;;;;;;1.50;1.10;;;;;;;13.94;94.73;95947.28;4975666;28;20215;-72
2022/06/08 04:17:11;;;;;;;2.88;1.20;;;;;;;14.09;96.56;95955.84;4975015;28;20246;-72
2022/06/08 04:19:37;;;;;;;2.10;1.10;;;;;;;14.04;96.70;95953.00;4975530;28;20203;-72
2022/06/08 04:22:04;;;;;;;3.22;1.02;;;;;;;14.19;97.65;95948.31;4975377;28;20676;-71
2022/06/08 04:24:31;;;;;;;7.75;2.75;;;;;;;14.36;97.19;95946.88;4973197;28;20200;-72
2022/06/08 04:26:57;;;;;;;2.03;1.70;;;;;;;14.45;98.24;95945.63;4975111;28;20231;-72
2022/06/08 04:29:24;;;;;;;4.38;1.30;;;;;;;14.54;98.36;95945.19;4975546;28;20204;-71
2022/06/08 04:31:50;;;;;;;5.40;1.40;;;;;;;14.63;99.09;95937.84;4972072;28;20683;-72
2022/06/08 04:34:19;;;;;;;3.58;1.50;;;;;;;14.99;98.62;95946.84;4974424;28;20679;-72
2022/06/08 04:36:46;;;;;;;3.97;2.35;;;;;;;14.93;100.00;95942.38;4975429;28;20234;-71
2022/06/08 04:39:14;;;;;;;4.03;2.10;;;;;;;15.03;100.00;95938.28;4975015;28;20218;-72
2022/06/08 04:41:41;;;;;;;2.92;1.92;;;;;;;15.23;100.00;95930.25;4974938;28;20203;-72
2022/06/08 04:44:08;;;;;;;5.72;2.55;;;;;;;15.30;100.00;95932.66;4974344;28;20227;-72
2022/06/08 04:46:34;;;;;;;8.05;2.40;;;;;;;15.25;100.00;95934.31;4975431;28;20203;-72
2022/06/08 04:49:01;;;;;;;7.68;2.80;;;;;;;15.15;100.00;95944.53;4974863;28;20207;-72
2022/06/08 04:51:29;;;;;;;4.32;2.88;;;;;;;15.50;100.00;95943.97;4975268;28;20695;-72
2022/06/08 04:53:56;;;;;;;5.53;2.83;;;;;;;15.57;100.00;95942.06;4973989;28;20203;-72
2022/06/08 04:56:22;;;;;;;4.22;2.50;;;;;;;15.61;100.00;95937.16;4975105;28;20203;-71
2022/06/08 04:58:49;;;;;;;7.40;3.20;;;;;;;15.87;100.00;95938.59;4975618;28;20210;-71
2022/06/08 05:01:15;;;;;;;11.25;2.90;;;;;;;15.72;100.00;95939.94;4975953;28;20203;-71
2022/06/08 05:03:42;;;;;;;4.88;3.15;;;;;;;15.87;100.00;95935.94;4974053;28;20253;-71
2022/06/08 05:06:08;;;;;;;5.43;2.60;;;;;;;16.10;100.00;95930.00;4974868;28;20275;-71
2022/06/08 05:08:37;;;;;;;5.75;2.58;;;;;;;16.43;100.00;95931.34;4975878;28;20226;-71
2022/06/08 05:11:05;;;;;;;3.78;2.45;;;;;;;16.49;99.82;95936.59;4975368;28;20837;-71
2022/06/08 05:13:33;;;;;;;4.57;3.13;;;;;;;16.37;99.65;95937.56;4973904;28;20199;-71
2022/06/08 05:16:00;;;;;;;4.50;2.88;;;;;;;16.52;98.80;95938.00;4975106;28;20218;-71
2022/06/08 05:18:26;;;;;;;7.25;3.17;;;;;;;16.64;99.14;95939.72;4975181;28;20717;-71
2022/06/08 05:20:53;;;;;;;5.65;3.13;;;;;;;16.83;98.26;95936.03;4975246;28;20215;-71
2022/06/08 05:23:24;;;;;;;7.78;3.70;;;;;;;16.86;97.67;95934.78;4973812;28;20250;-71
2022/06/08 05:25:53;;;;;;;7.30;3.40;;;;;;;16.94;97.05;95931.81;4975289;28;20672;-71
2022/06/08 05:28:20;;;;;;;8.73;3.25;;;;;;;17.03;96.65;95928.63;4975099;28;20226;-71
2022/06/08 05:30:49;;;;;;;7.82;3.28;;;;;;;16.97;96.45;95929.53;4974682;28;20208;-71
2022/06/08 05:33:16;;;;;;;9.50;3.17;;;;;;;17.11;95.73;95923.00;4970428;28;20207;-71
2022/06/08 05:35:42;;;;;;;5.47;3.30;;;;;;;17.17;96.14;95908.78;4975948;28;20204;-71
2022/06/08 05:38:09;;;;;;;7.88;3.35;;;;;;;17.08;94.08;95910.13;4978092;28;20317;-71
2022/06/08 05:40:37;;;;;;;4.75;3.13;;;;;;;17.16;95.25;95913.28;4978689;28;20199;-71
2022/06/08 05:43:06;;;;;;;5.40;2.92;;;;;;;17.22;95.07;95911.56;4977186;28;20231;-71
2022/06/08 05:45:34;;;;;;;6.28;3.40;;;;;;;16.93;95.97;95911.53;4978032;28;20199;-71
2022/06/08 05:48:02;;;;;;;5.85;2.72;;;;;;;16.47;97.53;95910.44;4977780;28;20714;-71
2022/06/08 05:50:29;;;;;;;7.28;2.90;;;;;;;16.47;97.78;95908.63;4978384;28;20211;-70
2022/06/08 05:52:55;;;;;;;4.50;3.00;;;;;;;16.46;98.23;95909.66;4977588;28;20207;-71
2022/06/08 05:55:23;;;;;;;5.10;2.80;;;;;;;16.78;98.33;95911.13;4977846;28;20555;-71
2022/06/08 05:57:51;;;;;;;4.43;2.50;;;;;;;16.66;97.48;95912.88;4977784;28;20242;-71
2022/06/08 06:00:22;;;;;;;5.07;2.65;;;;;;;17.01;96.41;95919.25;4978584;28;20294;-71
2022/06/08 06:02:50;;;;;;;10.80;2.92;;;;;;;16.73;97.73;95924.28;4976929;28;20231;-71
2022/06/08 06:05:19;;;;;;;5.82;2.60;;;;;;;16.77;96.77;95920.94;4977910;28;20199;-71
2022/06/08 06:07:46;;;;;;;4.90;3.00;;;;;;;16.97;96.68;95924.19;4978904;28;20231;-71
2022/06/08 06:10:14;;;;;;;6.65;2.67;;;;;;;17.21;96.01;95920.63;4977527;28;20203;-71
2022/06/08 06:12:41;;;;;;;4.32;2.70;;;;;;;17.14;95.24;95917.22;4976887;28;20211;-71
2022/06/08 06:15:09;;;;;;;8.70;2.80;;;;;;;17.30;94.13;95914.78;4978176;28;20203;-71
2022/06/08 06:17:37;;;;;;;2.42;1.73;;;;;;;16.90;94.03;95910.13;4978207;28;20600;-71
2022/06/08 06:20:06;;;;;;;3.85;2.15;;;;;;;16.83;95.78;95908.63;4977710;28;20203;-71
2022/06/08 06:22:33;;;;;;;3.47;2.53;;;;;;;17.05;95.11;95909.78;4976595;28;20199;-71
2022/06/08 06:24:59;;;;;;;6.10;2.78;;;;;;;16.99;93.83;95908.81;4977514;28;20742;-70
2022/06/08 06:27:26;;;;;;;4.63;2.60;;;;;;;16.92;94.52;95913.41;4978148;28;20231;-71
2022/06/08 06:29:53;;;;;;;4.53;2.60;;;;;;;16.85;94.20;95904.72;4977452;28;20233;-71
2022/06/08 06:32:24;;;;;;;3.53;1.90;;;;;;;17.08;93.71;95905.63;4973223;28;20199;-71
2022/06/08 06:34:52;;;;;;;7.90;2.47;;;;;;;17.16;91.79;95901.84;4977604;28;20204;-71
2022/06/08 06:37:18;;;;;;;9.30;2.20;;;;;;;17.08;92.04;95902.97;4977289;28;20223;-71
2022/06/08 06:39:45;;;;;;;5.80;2.10;;;;;;;17.26;91.31;95905.63;4976528;28;20219;-72
2022/06/08 06:42:15;;;;;;;3.03;1.90;;;;;;;17.48;90.65;95890.75;4977830;28;20240;-72
2022/06/08 06:44:42;;;;;;;8.90;1.95;;;;;;;17.50;89.07;95891.34;4977119;28;20517;-72
2022/06/08 06:47:08;;;;;;;7.72;2.10;;;;;;;17.51;88.44;95890.28;4975772;28;20224;-72
2022/06/08 06:49:35;;;;;;;5.18;2.33;;;;;;;17.92;87.86;95876.91;4976385;28;20597;-72
2022/06/08 06:52:03;;;;;;;3.95;1.60;;;;;;;18.05;84.34;95882.84;4975731;28;20208;-72
2022/06/08 06:54:31;;;;;;;4.25;1.60;;;;;;;18.08;84.57;95884.25;4975477;28;20203;-72
2022/06/08 06:56:57;;;;;;;2.63;1.42;;;;;;;18.11;85.15;95878.44;4976762;28;20323;-73
2022/06/08 06:59:24;;;;;;;3.95;1.65;;;;;;;18.08;85.11;95874.38;4976216;28;20584;-72
2022/06/08 07:01:51;;;;;;;4.20;1.73;;;;;;;18.14;85.99;95869.97;4976176;28;20211;-72
2022/06/08 07:04:18;;;;;;;2.35;1.50;;;;;;;18.41;85.58;95872.78;4975976;28;20585;-72
2022/06/08 07:06:45;;;;;;;2.60;1.60;;;;;;;18.17;81.80;95867.69;4977152;28;20280;-72
2022/06/08 07:09:13;;;;;;;4.57;1.95;;;;;;;18.46;80.91;95864.09;4976713;28;20208;-73
2022/06/08 07:11:41;;;;;;;3.00;1.40;;;;;;;18.36;81.46;95858.53;4976821;28;20211;-72
2022/06/08 07:14:11;;;;;;;4.30;1.58;;;;;;;18.41;80.56;95864.78;4975785;28;20211;-73
2022/06/08 07:16:37;;;;;;;11.80;1.35;;;;;;;18.39;78.65;95860.72;4975635;28;20227;-73
2022/06/08 07:19:08;;;;;;;4.60;1.27;;;;;;;18.28;77.84;95860.72;4974826;28;20227;-72
2022/06/08 07:21:35;;;;;;;3.80;1.17;;;;;;;18.53;78.04;95870.94;4975647;28;20200;-73
2022/06/08 07:24:02;;;;;;;5.05;1.60;;;;;;;18.64;76.43;95858.59;4975515;28;20227;-73
2022/06/08 07:26:30;;;;;;;3.60;1.20;;;;;;;18.62;76.93;95864.19;4975558;28;20203;-73
2022/06/08 07:28:58;;;;;;;3.50;1.48;;;;;;;18.64;76.52;95870.06;4974813;28;20207;-73
2022/06/08 07:31:26;;;;;;;5.35;1.35;;;;;;;18.70;74.67;95865.66;4975105;28;20200;-72
2022/06/08 07:33:52;;;;;;;1.65;1.38;;;;;;;18.79;74.82;95862.41;4974360;28;20217;-72
2022/06/08 07:36:19;;;;;;;3.50;1.50;;;;;;;18.93;74.36;95863.75;4975428;28;20207;-73
2022/06/08 07:38:46;;;;;;;6.20;1.33;;;;;;;18.69;74.18;95854.19;4975718;28;20219;-73
2022/06/08 07:41:13;;;;;;;3.00;1.13;;;;;;;18.73;71.42;95854.53;4975335;28;20694;-73
2022/06/08 07:43:42;;;;;;;5.38;1.20;;;;;;;19.11;72.78;95842.22;4975227;28;20733;-73
2022/06/08 07:46:09;;;;;;;2.97;1.10;;;;;;;19.18;72.08;95857.06;4975230;28;20211;-73
2022/06/08 07:51:20;;;;;;;5.13;1.20;;;;;;;19.34;67.24;95834.91;4971376;28;20214;-73
2022/06/08 07:53:46;;;;;;;3.65;1.00;;;;;;;19.12;66.50;95830.50;4974297;28;20219;-73
2022/06/08 07:56:13;;;;;;;3.30;0.90;;;;;;;19.11;67.24;95828.88;4975480;28;20683;-73
2022/06/08 07:58:41;;;;;;;3.17;0.90;;;;;;;19.39;64.77;95832.34;4974713;28;20227;-73
2022/06/08 08:01:07;;;;;;;5.20;1.00;;;;;;;19.27;66.15;95828.91;4974979;28;20210;-73
2022/06/08 08:03:34;;;;;;;6.07;1.65;;;;;;;19.35;67.76;95822.38;4974445;28;20231;-73
2022/06/08 08:06:01;;;;;;;3.63;1.10;;;;;;;19.48;63.93;95816.72;4976244;28;20207;-73
2022/06/08 08:08:28;;;;;;;4.78;1.17;;;;;;;19.93;66.33;95805.72;4975568;28;20651;-73
2022/06/08 08:10:54;;;;;;;4.30;1.02;;;;;;;20.12;66.95;95809.75;4976089;28;20214;-74
2022/06/08 08:13:21;;;;;;;2.63;1.10;;;;;;;20.23;63.36;95806.97;4975859;28;20203;-73
2022/06/08 08:15:51;;;;;;;3.58;0.90;;;;;;;20.31;62.89;95811.94;4976179;28;20230;-73
2022/06/08 08:18:17;;;;;;;3.75;1.10;;;;;;;20.18;63.09;95804.22;4975575;28;20679;-73
2022/06/08 08:20:44;;;;;;;2.72;1.00;;;;;;;20.11;63.04;95796.63;4976396;28;20497;-73
2022/06/08 08:23:11;;;;;;;3.05;1.08;;;;;;;20.32;63.76;95797.47;4974891;28;20211;-73
2022/06/08 08:25:37;;;;;;;3.75;0.82;;;;;;;20.51;58.26;95796.13;4974772;28;20204;-73
2022/06/08 08:28:04;;;;;;;2.20;0.70;;;;;;;20.78;58.42;95793.53;4974937;28;20231;-73
2022/06/08 08:30:32;;;;;;;2.13;0.82;;;;;;;20.49;59.68;95792.06;4974605;28;20203;-73
2022/06/08 08:33:00;;;;;;;1.92;0.73;;;;;;;20.39;55.20;95789.25;4973599;28;20207;-73
2022/06/08 08:35:29;;;;;;;1.65;0.90;;;;;;;20.53;57.29;95785.16;4974975;28;20762;-73
2022/06/08 08:37:56;;;;;;;1.67;0.80;;;;;;;20.49;58.91;95782.19;4976047;28;20231;-73
2022/06/08 08:40:34;;;;;;;2.63;1.00;;;;;;;20.64;59.45;95777.00;4975488;28;20207;-73
2022/06/08 08:43:01;;;;;;;0.70;0.60;;;;;;;20.97;56.24;95779.56;4973985;28;20218;-73
2022/06/08 08:45:31;;;;;;;7.28;1.02;;;;;;;20.84;57.70;95770.03;4975120;28;20219;-73
2022/06/08 08:48:04;;;;;;;2.08;0.90;;;;;;;21.35;58.10;95768.69;4975573;28;20736;-73
2022/06/08 08:50:34;;;;;;;2.33;0.82;;;;;;;21.38;56.28;95763.63;4975065;28;20199;-73
2022/06/08 08:53:07;;;;;;;2.05;0.80;;;;;;;21.85;55.40;95751.97;4969497;28;20211;-73
2022/06/08 08:55:39;;;;;;;3.08;0.77;;;;;;;22.04;54.63;95755.84;4974250;28;20564;-73
2022/06/08 08:58:12;;;;;;;1.60;1.00;;;;;;;22.17;53.26;95753.53;4973984;28;20247;-73
2022/06/08 09:00:42;;;;;;;2.80;0.80;;;;;;;22.04;53.02;95752.38;4974564;28;20227;-73
2022/06/08 09:03:27;;;;;;;2.10;0.88;;;;;;;22.40;54.26;95747.78;4973305;28;20303;-73
2022/06/08 09:05:56;;;;;;;1.38;0.90;;;;;;;22.37;51.41;95750.16;4972509;28;20207;-73
2022/06/08 09:08:24;;;;;;;2.00;1.00;;;;;;;22.09;50.53;95751.31;4974113;28;20230;-73
2022/06/08 09:10:52;;;;;;;3.10;0.77;;;;;;;22.32;51.47;95742.09;4975068;28;20288;-73
2022/06/08 09:13:24;;;;;;;1.73;0.80;;;;;;;22.40;52.46;95742.41;4975661;28;20645;-73
2022/06/08 09:15:52;;;;;;;1.85;0.90;;;;;;;21.82;49.52;95738.28;4977709;28;20223;-73
2022/06/08 09:18:33;;;;;;;1.88;0.90;;;;;;;21.65;50.27;95742.94;4977492;28;20218;-73
2022/06/08 09:21:00;;;;;;;2.05;0.80;;;;;;;21.69;51.22;95731.47;4977337;28;20203;-73
2022/06/08 09:23:38;;;;;;;1.67;0.60;;;;;;;21.95;50.69;95727.09;4977159;28;20199;-73
2022/06/08 09:26:10;;;;;;;1.42;0.80;;;;;;;22.21;51.84;95726.94;4977662;28;20207;-73
2022/06/08 09:28:37;;;;;;;3.10;0.70;;;;;;;22.42;49.57;95726.81;4977933;28;20241;-73
2022/06/08 09:31:04;;;;;;;2.60;1.00;;;;;;;21.41;49.47;95725.59;4978450;28;20210;-73
2022/06/08 09:33:36;;;;;;;4.95;0.80;;;;;;;21.91;49.62;95726.00;4977398;28;20208;-73
2022/06/08 09:36:06;;;;;;;2.85;0.73;;;;;;;22.45;50.37;95726.28;4977879;28;20858;-73
2022/06/08 09:38:36;;;;;;;4.05;1.00;;;;;;;22.22;43.44;95729.41;4977774;28;20598;-74
2022/06/08 09:41:10;;;;;;;1.45;0.68;;;;;;;22.86;45.20;95714.59;4977517;28;20214;-73
2022/06/08 09:43:49;;;;;;;1.92;0.65;;;;;;;22.51;47.00;95716.41;4976784;28;20214;-73
2022/06/08 09:46:20;;;;;;;2.80;0.75;;;;;;;22.65;44.69;95723.69;4977758;28;20211;-73
2022/06/08 09:52:04;;;;;;;1.65;0.70;;;;;;;22.64;48.84;95711.31;4975879;28;20214;-73
2022/06/08 09:54:40;;;;;;;3.72;1.00;;;;;;;22.98;48.67;95705.25;4977499;28;20199;-73
2022/06/08 09:57:24;;;;;;;1.80;0.93;;;;;;;22.69;47.48;95703.28;4977842;28;20749;-73
2022/06/08 10:00:05;;;;;;;1.55;0.63;;;;;;;22.77;48.34;95702.75;4978728;28;20679;-73
2022/06/08 10:02:41;;;;;;;2.13;0.90;;;;;;;22.86;50.66;95693.13;4976954;28;20199;-73
2022/06/08 10:05:23;;;;;;;1.48;0.80;;;;;;;22.67;47.47;95700.06;4978501;28;20918;-73
2022/06/08 10:08:11;;;;;;;1.52;0.68;;;;;;;22.98;46.58;95699.88;4978572;28;20230;-73
2022/06/08 10:10:45;;;;;;;2.65;0.73;;;;;;;23.25;45.92;95687.03;4978516;28;20207;-73
2022/06/08 10:13:19;;;;;;;0.98;0.70;;;;;;;23.45;47.51;95687.84;4977028;28;20208;-73
2022/06/08 10:15:49;;;;;;;2.33;0.80;;;;;;;23.71;50.93;95686.75;4978473;28;20211;-73
2022/06/08 10:18:20;;;;;;;1.17;0.70;;;;;;;23.74;47.12;95677.34;4977913;28;20723;-73
2022/06/08 10:20:51;;;;;;;5.25;0.90;;;;;;;23.65;48.64;95671.69;4978097;28;20983;-73
2022/06/08 10:23:29;;;;;;;3.75;1.00;;;;;;;23.79;47.48;95669.25;4976889;28;20207;-73
2022/06/08 10:26:01;;;;;;;1.52;0.80;;;;;;;23.64;46.22;95664.69;4977709;28;20997;-73
2022/06/08 10:28:36;;;;;;;2.88;0.93;;;;;;;23.47;47.72;95664.19;4977490;28;20304;-72
2022/06/08 10:31:11;;;;;;;1.65;0.70;;;;;;;23.12;48.12;95655.28;4977703;28;20214;-72
2022/06/08 10:33:45;;;;;;;3.47;1.00;;;;;;;23.45;47.73;95660.94;4976161;28;20215;-73
2022/06/08 10:36:13;;;;;;;3.13;0.90;;;;;;;23.98;49.99;95654.94;4977502;28;20276;-73
2022/06/08 10:38:43;;;;;;;3.28;0.80;;;;;;;24.15;44.91;95658.94;4977518;28;20285;-73
2022/06/08 10:44:29;;;;;;;3.10;0.57;;;;;;;24.56;44.37;95647.72;4976487;28;20213;-73
2022/06/08 10:46:56;;;;;;;2.22;1.05;;;;;;;23.97;44.40;95654.16;4977468;28;20227;-73
2022/06/08 10:49:51;;;;;;;6.25;1.40;;;;;;;23.92;47.65;95650.69;4976450;28;20278;-73
2022/06/08 10:52:40;;;;;;;4.03;1.38;;;;;;;23.77;45.42;95649.91;4972114;28;20228;-73
2022/06/08 10:55:37;;;;;;;2.35;0.80;;;;;;;23.65;45.65;95633.19;4976392;28;20259;-73
2022/06/08 10:58:10;;;;;;;4.78;0.80;;;;;;;23.76;42.99;95637.53;4970197;28;20905;-73
2022/06/08 11:01:04;;;;;;;1.75;0.65;;;;;;;24.04;44.27;95624.25;4976211;28;20207;-73
2022/06/08 11:04:06;;;;;;;1.67;0.77;;;;;;;24.15;45.34;95625.84;4976214;28;20207;-73
2022/06/08 11:07:04;;;;;;;1.40;0.80;;;;;;;24.34;42.63;95621.44;4977139;28;20207;-73
2022/06/08 11:09:51;;;;;;;2.42;0.75;;;;;;;24.57;44.11;95622.41;4977509;28;20246;-73
2022/06/08 11:12:34;;;;;;;3.63;0.90;;;;;;;24.16;42.86;95619.34;4975867;28;20222;-73
2022/06/08 11:15:10;;;;;;;7.25;0.90;;;;;;;24.73;45.30;95615.03;4975456;28;20207;-73
2022/06/08 11:17:44;;;;;;;1.10;0.68;;;;;;;24.39;48.12;95618.75;4976277;28;20301;-73
2022/06/08 11:20:16;;;;;;;1.75;0.80;;;;;;;24.11;47.27;95616.69;4976718;28;20231;-73
2022/06/08 11:22:46;;;;;;;6.90;0.90;;;;;;;24.58;45.65;95613.25;4974760;28;20376;-73
2022/06/08 11:25:22;;;;;;;1.50;0.90;;;;;;;24.79;44.34;95609.34;4975821;28;20238;-73
2022/06/08 11:28:32;;;;;;;1.38;0.85;;;;;;;23.82;44.75;95613.03;4976526;28;20276;-73
2022/06/08 11:31:00;;;;;;;2.70;0.80;;;;;;;23.68;44.93;95606.56;4975932;28;20234;-73
2022/06/08 11:34:02;;;;;;;2.92;0.77;;;;;;;24.25;45.30;95606.91;4974398;28;20211;-73
2022/06/08 11:36:56;;;;;;;1.33;0.70;;;;;;;24.52;43.55;95588.53;4975372;28;20675;-73
2022/06/08 11:39:29;;;;;;;2.60;0.90;;;;;;;24.66;45.48;95588.41;4975503;28;20211;-73
2022/06/08 11:42:14;;;;;;;2.05;0.90;;;;;;;24.97;41.72;95575.53;4975532;28;20229;-73
2022/06/08 11:44:44;;;;;;;3.88;0.98;;;;;;;25.76;43.61;95577.50;4975010;28;20227;-72
2022/06/08 11:47:17;;;;;;;5.15;0.93;;;;;;;25.43;40.48;95573.00;4975152;28;20230;-73
2022/06/08 11:49:46;;;;;;;5.63;1.10;;;;;;;25.10;41.74;95574.91;4976076;28;20208;-73
2022/06/08 11:52:24;;;;;;;2.35;0.95;;;;;;;25.14;42.08;95567.84;4971717;28;20211;-73
2022/06/08 11:55:01;;;;;;;1.52;0.82;;;;;;;25.92;41.76;95562.75;4975518;28;20210;-72
2022/06/08 11:57:29;;;;;;;3.05;0.90;;;;;;;25.85;41.98;95563.13;4975643;28;20284;-73
2022/06/08 11:59:58;;;;;;;3.95;1.02;;;;;;;25.89;42.11;95558.75;4974786;28;20203;-73